Time;durP1;ratioP1;P1;durP2;ratioP2;P2;SDS_P1;SDS_P2;PMS_P1;PMS_P2;Temp;Humidity;BMP_temperature;BMP_pressure;BME280_temperature;BME280_humidity;BME280_pressure;Samples;Min_cycle;Max_cycle;Signal;HPM_P1;HPM_P2
2023/12/19 00:00:13;;;;;;;13.98;12.43;;;;;;;7.37;89.84;101540.22;7392044;19;20665;-76
2023/12/19 00:02:39;;;;;;;13.98;12.57;;;;;;;7.34;90.09;101536.88;7392457;19;20775;-77
2023/12/19 00:05:08;;;;;;;13.15;11.63;;;;;;;7.42;89.74;101530.94;7392513;19;20868;-76
2023/12/19 00:07:36;;;;;;;15.32;12.77;;;;;;;7.42;90.04;101556.50;7391600;19;20872;-77
2023/12/19 00:10:03;;;;;;;14.85;12.73;;;;;;;7.40;90.26;101563.72;7392767;19;20739;-77
2023/12/19 00:12:30;;;;;;;15.30;13.03;;;;;;;7.41;90.53;101550.38;7391094;19;20372;-77
2023/12/19 00:14:57;;;;;;;14.40;12.75;;;;;;;7.39;90.70;101520.63;7394307;19;20437;-77
2023/12/19 00:17:23;;;;;;;14.82;13.23;;;;;;;7.38;90.99;101545.38;7392966;19;20372;-76
2023/12/19 00:19:50;;;;;;;14.23;12.73;;;;;;;7.41;90.83;101568.84;7390304;19;20352;-76
2023/12/19 00:22:17;;;;;;;14.93;12.70;;;;;;;7.41;90.92;101587.34;7391520;19;20344;-77
2023/12/19 00:24:44;;;;;;;14.48;12.98;;;;;;;7.47;90.76;101599.19;7389645;19;20359;-77
2023/12/19 00:27:10;;;;;;;14.73;13.10;;;;;;;7.46;90.96;101615.97;7391883;19;20371;-77
2023/12/19 00:29:37;;;;;;;13.98;12.23;;;;;;;7.43;90.93;101595.13;7390327;19;20500;-76
2023/12/19 00:32:04;;;;;;;15.40;13.48;;;;;;;7.47;91.00;101581.53;7391652;19;20389;-76
2023/12/19 00:34:31;;;;;;;14.25;12.38;;;;;;;7.47;91.03;101592.09;7390147;19;20356;-77
2023/12/19 00:36:58;;;;;;;14.73;13.23;;;;;;;7.46;91.05;101586.94;7389521;19;20347;-77
2023/12/19 00:39:25;;;;;;;13.88;12.48;;;;;;;7.50;91.22;101580.41;7391484;19;21089;-77
2023/12/19 00:41:51;;;;;;;15.27;12.93;;;;;;;7.50;91.07;101580.41;7392905;19;20808;-77
2023/12/19 00:44:18;;;;;;;13.88;12.48;;;;;;;7.53;90.91;101581.00;7389373;19;20345;-77
2023/12/19 00:46:45;;;;;;;13.60;12.20;;;;;;;7.54;90.93;101585.31;7390482;19;20324;-77
2023/12/19 00:49:12;;;;;;;14.10;12.32;;;;;;;7.57;90.96;101578.94;7383751;19;20372;-77
2023/12/19 00:51:39;;;;;;;13.20;11.85;;;;;;;7.54;90.99;101572.13;7388988;19;20369;-77
2023/12/19 00:54:05;;;;;;;13.18;11.85;;;;;;;7.57;91.18;101576.28;7385815;19;20391;-77
2023/12/19 00:56:32;;;;;;;14.00;12.57;;;;;;;7.57;91.07;101586.84;7387319;19;20352;-77
2023/12/19 00:58:59;;;;;;;14.45;12.90;;;;;;;7.61;91.17;101583.00;7387180;19;20381;-76
2023/12/19 01:01:26;;;;;;;14.95;13.25;;;;;;;7.61;91.21;101572.44;7386920;19;20352;-77
2023/12/19 01:03:53;;;;;;;14.45;12.88;;;;;;;7.65;91.32;101571.19;7387623;19;20348;-77
2023/12/19 01:06:20;;;;;;;13.60;12.18;;;;;;;7.65;91.53;101576.47;7388688;19;20356;-77
2023/12/19 01:08:47;;;;;;;14.48;12.68;;;;;;;7.66;91.58;101577.28;7386743;19;20345;-77
2023/12/19 01:11:14;;;;;;;14.95;12.82;;;;;;;7.65;91.90;101575.59;7390769;19;20368;-77
2023/12/19 01:13:41;;;;;;;14.73;13.10;;;;;;;7.67;91.67;101561.31;7389506;19;20529;-76
2023/12/19 01:16:08;;;;;;;13.65;12.20;;;;;;;7.68;91.98;101570.91;7399220;19;20356;-77
2023/12/19 01:18:34;;;;;;;14.63;12.02;;;;;;;7.67;92.15;101577.16;7399627;19;20373;-77
2023/12/19 01:21:05;;;;;;;14.23;12.32;;;;;;;7.66;92.59;101586.03;7390904;19;21238;-77
2023/12/19 01:23:32;;;;;;;14.50;12.07;;;;;;;7.68;92.29;101578.00;7397128;19;20360;-78
2023/12/19 01:25:58;;;;;;;14.30;12.80;;;;;;;7.65;92.19;101576.47;7396435;19;20368;-77
2023/12/19 01:28:25;;;;;;;14.15;12.65;;;;;;;7.68;92.15;101578.81;7396896;19;20372;-77
2023/12/19 01:30:52;;;;;;;14.07;12.57;;;;;;;7.69;92.04;101564.66;7399343;19;20885;-78
2023/12/19 01:33:19;;;;;;;14.75;12.45;;;;;;;7.66;92.80;101558.81;7395666;19;20358;-77
2023/12/19 01:35:47;;;;;;;14.67;12.80;;;;;;;7.63;93.37;101559.06;7395566;19;20693;-76
2023/12/19 01:38:14;;;;;;;15.05;13.50;;;;;;;7.57;94.83;101555.16;7393671;19;20376;-77
2023/12/19 01:40:41;;;;;;;15.68;14.07;;;;;;;7.57;95.01;101555.16;7397725;19;20366;-77
2023/12/19 01:43:19;;;;;;;15.65;13.82;;;;;;;7.48;95.86;101553.31;7396741;19;20942;-77
2023/12/19 01:45:47;;;;;;;17.27;15.27;;;;;;;7.46;96.12;101556.13;7396547;19;20366;-77
2023/12/19 01:48:15;;;;;;;16.77;15.07;;;;;;;7.42;96.32;101546.78;7396870;19;20387;-76
2023/12/19 01:50:42;;;;;;;16.00;14.32;;;;;;;7.33;96.60;101545.78;7399678;19;20368;-77
2023/12/19 01:53:10;;;;;;;16.05;14.43;;;;;;;7.30;96.91;101543.41;7395030;19;20382;-78
2023/12/19 01:55:39;;;;;;;17.75;15.02;;;;;;;7.23;96.89;101539.63;7397408;19;20360;-77
2023/12/19 01:58:06;;;;;;;18.02;15.50;;;;;;;7.29;96.78;101531.19;7397236;19;20368;-76
2023/12/19 02:00:35;;;;;;;16.50;14.73;;;;;;;7.29;96.84;101533.00;7398387;19;20378;-76
2023/12/19 02:03:04;;;;;;;16.50;14.87;;;;;;;7.32;96.65;101525.63;7397648;19;20345;-77
2023/12/19 02:05:36;;;;;;;14.80;13.20;;;;;;;7.24;96.65;101538.63;7396954;19;20711;-78
2023/12/19 02:08:04;;;;;;;15.00;13.33;;;;;;;7.31;96.36;101536.31;7395981;19;20352;-76
2023/12/19 02:10:31;;;;;;;15.02;13.52;;;;;;;7.32;96.40;101530.06;7396014;19;20349;-78
2023/12/19 02:12:59;;;;;;;14.48;12.77;;;;;;;7.30;96.28;101517.00;7395616;19;20658;-78
2023/12/19 02:15:26;;;;;;;14.65;13.18;;;;;;;7.30;96.60;101529.38;7397940;19;20360;-77
2023/12/19 02:17:53;;;;;;;14.50;13.00;;;;;;;7.32;96.13;101514.22;7395766;19;20466;-78
2023/12/19 02:20:20;;;;;;;13.30;12.00;;;;;;;7.30;96.16;101522.28;7394200;19;20422;-77
2023/12/19 02:22:52;;;;;;;13.05;11.65;;;;;;;7.35;96.14;101517.44;7398074;19;20905;-77
2023/12/19 02:25:20;;;;;;;12.50;11.20;;;;;;;7.36;96.10;101515.63;7396501;19;20476;-76
2023/12/19 02:27:47;;;;;;;12.88;10.85;;;;;;;7.35;95.96;101504.25;7394071;19;20397;-76
2023/12/19 02:30:14;;;;;;;11.57;10.43;;;;;;;7.38;95.79;101495.22;7395535;19;20389;-77
2023/12/19 02:32:42;;;;;;;11.05;9.90;;;;;;;7.37;95.84;101501.47;7394029;19;20344;-77
2023/12/19 02:35:09;;;;;;;10.90;9.80;;;;;;;7.42;95.48;101495.81;7393701;19;20875;-77
2023/12/19 02:37:36;;;;;;;11.02;9.90;;;;;;;7.39;95.64;101498.69;7392641;19;20385;-77
2023/12/19 02:40:04;;;;;;;9.85;8.93;;;;;;;7.37;95.50;101484.78;7394924;19;20352;-76
2023/12/19 02:42:31;;;;;;;9.98;8.68;;;;;;;7.37;95.36;101482.16;7394716;19;20351;-77
2023/12/19 02:44:57;;;;;;;10.10;9.10;;;;;;;7.39;95.48;101470.50;7393642;19;20688;-76
2023/12/19 02:47:24;;;;;;;10.10;9.10;;;;;;;7.41;95.35;101479.09;7394995;19;20360;-76
2023/12/19 02:49:51;;;;;;;10.23;9.23;;;;;;;7.44;95.36;101483.28;7390929;19;20364;-76
2023/12/19 02:52:18;;;;;;;10.73;9.63;;;;;;;7.49;95.37;101489.00;7395384;19;20355;-77
2023/12/19 02:54:45;;;;;;;10.60;9.55;;;;;;;7.45;95.45;101479.69;7395257;19;20368;-76
2023/12/19 02:57:11;;;;;;;10.23;9.23;;;;;;;7.46;95.27;101473.41;7393520;19;20363;-76
2023/12/19 02:59:38;;;;;;;10.02;9.07;;;;;;;7.39;95.67;101482.84;7395372;19;20755;-76
2023/12/19 03:02:05;;;;;;;10.70;9.70;;;;;;;7.46;95.24;101474.28;7395965;19;20745;-76
2023/12/19 03:04:32;;;;;;;10.73;9.20;;;;;;;7.45;95.49;101462.03;7394549;19;20357;-77
2023/12/19 03:06:59;;;;;;;10.70;9.60;;;;;;;7.48;95.04;101456.50;7394359;19;20394;-78
2023/12/19 03:09:26;;;;;;;10.10;9.20;;;;;;;7.48;95.19;101453.00;7390447;19;20683;-77
2023/12/19 03:12:04;;;;;;;9.00;8.10;;;;;;;7.50;95.10;101437.84;7392803;19;20353;-77
2023/12/19 03:14:35;;;;;;;9.93;9.02;;;;;;;7.50;94.82;101438.72;7395517;19;20385;-78
2023/12/19 03:17:04;;;;;;;9.18;8.38;;;;;;;7.50;94.83;101441.34;7395333;19;20361;-78
2023/12/19 03:19:31;;;;;;;8.77;7.70;;;;;;;7.46;94.85;101432.03;7391316;19;20738;-78
2023/12/19 03:21:58;;;;;;;8.50;7.70;;;;;;;7.47;95.00;101427.59;7392815;19;20393;-79
2023/12/19 03:24:28;;;;;;;8.50;7.70;;;;;;;7.53;94.90;101427.03;7393706;19;20401;-77
2023/12/19 03:26:55;;;;;;;9.05;8.15;;;;;;;7.49;94.94;101431.75;7394052;19;20427;-79
2023/12/19 03:29:21;;;;;;;8.40;7.60;;;;;;;7.50;94.95;101425.50;7390948;19;20372;-77
2023/12/19 03:31:49;;;;;;;8.00;7.28;;;;;;;7.50;94.99;101432.56;7392945;19;20349;-77
2023/12/19 03:34:16;;;;;;;8.37;7.57;;;;;;;7.51;94.81;101440.38;7390799;19;20904;-77
2023/12/19 03:36:45;;;;;;;8.90;8.05;;;;;;;7.53;94.94;101437.59;7391362;19;20356;-77
2023/12/19 03:39:12;;;;;;;8.55;7.65;;;;;;;7.48;95.13;101431.88;7392107;19;20370;-77
2023/12/19 03:41:39;;;;;;;8.57;7.68;;;;;;;7.53;95.02;101427.88;7391390;19;20363;-77
2023/12/19 03:44:06;;;;;;;8.82;7.93;;;;;;;7.55;94.89;101430.38;7392923;19;20364;-77
2023/12/19 03:46:32;;;;;;;8.57;7.72;;;;;;;7.53;94.92;101422.59;7394507;19;20378;-78
2023/12/19 03:49:00;;;;;;;9.15;8.25;;;;;;;7.58;94.82;101424.81;7391084;19;21054;-77
2023/12/19 03:51:26;;;;;;;8.70;7.60;;;;;;;7.50;95.04;101401.75;7391352;19;20412;-77
2023/12/19 03:53:53;;;;;;;8.43;7.63;;;;;;;7.53;94.94;101395.34;7392829;19;20389;-77
2023/12/19 03:56:20;;;;;;;7.70;7.00;;;;;;;7.43;94.89;101395.34;7394059;19;20897;-78
2023/12/19 03:58:47;;;;;;;8.10;7.38;;;;;;;7.47;95.10;101388.00;7393525;19;20361;-78
2023/12/19 04:01:14;;;;;;;8.52;7.72;;;;;;;7.49;94.94;101393.97;7390397;19;20392;-78
2023/12/19 04:03:41;;;;;;;8.27;7.53;;;;;;;7.49;95.09;101388.69;7393148;19;20367;-78
2023/12/19 04:06:08;;;;;;;8.57;7.78;;;;;;;7.45;95.40;101382.84;7391798;19;20328;-78
2023/12/19 04:08:35;;;;;;;8.70;7.90;;;;;;;7.43;95.59;101387.41;7390145;19;20363;-77
2023/12/19 04:11:02;;;;;;;8.32;7.53;;;;;;;7.44;95.30;101365.34;7389763;19;20347;-77
2023/12/19 04:13:29;;;;;;;8.05;7.25;;;;;;;7.38;95.81;101365.06;7393115;19;20381;-78
2023/12/19 04:15:55;;;;;;;8.20;7.40;;;;;;;7.43;95.63;101362.84;7392576;19;20372;-77
2023/12/19 04:18:22;;;;;;;8.30;7.50;;;;;;;7.42;95.49;101362.00;7392108;19;20368;-77
2023/12/19 04:20:49;;;;;;;8.57;7.78;;;;;;;7.43;95.57;101358.38;7388480;19;20349;-77
2023/12/19 04:23:16;;;;;;;9.07;8.20;;;;;;;7.47;95.62;101364.22;7389631;19;20352;-78
2023/12/19 04:25:43;;;;;;;8.45;7.65;;;;;;;7.47;95.51;101346.56;7389816;19;20364;-77
2023/12/19 04:28:09;;;;;;;8.90;8.00;;;;;;;7.44;95.72;101354.78;7392248;19;20411;-77
2023/12/19 04:30:36;;;;;;;8.07;7.38;;;;;;;7.46;95.78;101347.56;7390739;19;20357;-77
2023/12/19 04:33:03;;;;;;;8.25;7.55;;;;;;;7.47;95.82;101340.47;7388908;19;20383;-77
2023/12/19 04:35:30;;;;;;;8.55;7.75;;;;;;;7.45;96.00;101339.78;7389663;19;20359;-77
2023/12/19 04:37:57;;;;;;;8.65;7.90;;;;;;;7.49;95.91;101341.16;7389624;19;20377;-77
2023/12/19 04:40:24;;;;;;;8.67;7.87;;;;;;;7.49;96.08;101336.72;7390224;19;20348;-77
2023/12/19 04:42:51;;;;;;;8.57;7.68;;;;;;;7.48;96.24;101340.34;7391118;19;20349;-77
2023/12/19 04:45:17;;;;;;;8.80;8.00;;;;;;;7.45;96.42;101350.34;7392363;19;20357;-77
2023/12/19 04:47:44;;;;;;;9.10;8.27;;;;;;;7.46;96.16;101333.50;7390180;19;21213;-78
2023/12/19 04:50:11;;;;;;;9.85;8.88;;;;;;;7.50;96.05;101338.41;7384955;19;20869;-77
2023/12/19 04:52:38;;;;;;;9.00;8.20;;;;;;;7.45;96.16;101330.03;7390625;19;20384;-78
2023/12/19 04:55:06;;;;;;;8.65;7.85;;;;;;;7.47;96.12;101329.91;7388592;19;20356;-77
2023/12/19 04:57:33;;;;;;;9.23;8.32;;;;;;;7.49;96.18;101318.22;7392199;19;20352;-77
2023/12/19 04:59:59;;;;;;;8.80;8.00;;;;;;;7.51;96.00;101320.75;7391872;19;21251;-78
2023/12/19 05:02:27;;;;;;;8.53;7.80;;;;;;;7.54;95.90;101320.44;7390990;19;20366;-77
2023/12/19 05:04:54;;;;;;;8.65;7.55;;;;;;;7.55;96.02;101327.41;7386591;19;20400;-77
2023/12/19 05:07:21;;;;;;;9.10;8.23;;;;;;;7.59;95.74;101333.22;7389269;19;20352;-77
2023/12/19 05:09:47;;;;;;;7.78;7.07;;;;;;;7.55;95.90;101322.94;7390302;19;20373;-77
2023/12/19 05:12:14;;;;;;;8.10;7.40;;;;;;;7.60;95.91;101326.97;7390600;19;20372;-78
2023/12/19 05:14:41;;;;;;;7.90;7.20;;;;;;;7.59;96.04;101320.88;7386074;19;20368;-78
2023/12/19 05:17:08;;;;;;;8.63;7.82;;;;;;;7.64;96.10;101315.19;7388704;19;20356;-78
2023/12/19 05:19:35;;;;;;;8.40;7.53;;;;;;;7.63;95.68;101321.41;7389489;19;20417;-77
2023/12/19 05:22:15;;;;;;;9.25;8.45;;;;;;;7.59;95.64;101314.75;7390732;19;20534;-78
2023/12/19 05:24:42;;;;;;;9.80;8.90;;;;;;;7.57;95.71;101312.25;7391587;19;20332;-77
2023/12/19 05:27:09;;;;;;;10.23;9.32;;;;;;;7.52;95.74;101314.47;7391362;19;20356;-77
2023/12/19 05:29:36;;;;;;;10.73;9.73;;;;;;;7.45;95.95;101310.72;7390100;19;20368;-77
2023/12/19 05:32:04;;;;;;;10.77;9.77;;;;;;;7.44;95.81;101314.34;7391715;19;20329;-77
2023/12/19 05:34:31;;;;;;;14.03;12.63;;;;;;;7.42;95.84;101317.13;7386806;19;20349;-77
2023/12/19 05:36:58;;;;;;;11.25;10.15;;;;;;;7.37;95.62;101307.94;7391879;19;20351;-77
2023/12/19 05:39:26;;;;;;;10.10;9.10;;;;;;;7.33;95.75;101292.41;7390790;19;20361;-77
2023/12/19 05:41:56;;;;;;;9.88;8.90;;;;;;;7.29;95.78;101285.75;7389627;19;20887;-78
2023/12/19 05:44:23;;;;;;;9.77;8.87;;;;;;;7.29;95.74;101266.44;7390141;19;20960;-78
2023/12/19 05:46:50;;;;;;;9.48;8.57;;;;;;;7.29;95.83;101255.88;7391689;19;20357;-78
2023/12/19 05:49:18;;;;;;;9.30;8.40;;;;;;;7.24;96.06;101253.63;7389992;19;20705;-78
2023/12/19 05:51:45;;;;;;;9.50;8.60;;;;;;;7.21;96.13;101243.38;7387666;19;20360;-77
2023/12/19 05:54:12;;;;;;;9.45;8.55;;;;;;;7.15;95.92;101250.03;7392791;19;20373;-78
2023/12/19 05:56:39;;;;;;;9.40;8.32;;;;;;;7.07;96.28;101243.78;7390423;19;20725;-78
2023/12/19 05:59:05;;;;;;;8.70;7.90;;;;;;;7.00;96.74;101240.88;7388658;19;20377;-78
2023/12/19 06:01:32;;;;;;;9.00;8.20;;;;;;;7.03;96.54;101240.56;7389085;19;20365;-78
2023/12/19 06:04:00;;;;;;;8.52;7.72;;;;;;;6.97;96.89;101237.66;7396139;19;20353;-78
2023/12/19 06:06:27;;;;;;;8.27;7.47;;;;;;;6.96;96.98;101236.00;7395044;19;20413;-77
2023/12/19 06:08:55;;;;;;;8.10;7.40;;;;;;;6.97;96.92;101237.66;7391579;19;20348;-77
2023/12/19 06:11:26;;;;;;;8.95;8.05;;;;;;;6.98;96.79;101252.53;7396224;19;20397;-77
2023/12/19 06:13:53;;;;;;;8.70;7.80;;;;;;;6.92;97.25;101241.53;7395765;19;20369;-80
2023/12/19 06:16:20;;;;;;;9.15;8.25;;;;;;;6.96;97.19;101243.94;7398536;19;20870;-79
2023/12/19 06:18:46;;;;;;;8.68;7.88;;;;;;;6.90;97.52;101251.41;7396388;19;20361;-80
2023/12/19 06:21:13;;;;;;;9.05;8.15;;;;;;;6.88;97.33;101249.88;7393861;19;20385;-79
2023/12/19 06:23:40;;;;;;;8.80;8.00;;;;;;;6.92;97.48;101235.44;7394004;19;20348;-79
2023/12/19 06:26:08;;;;;;;8.93;8.05;;;;;;;6.92;97.20;101243.34;7397732;19;20365;-79
2023/12/19 06:28:35;;;;;;;8.52;7.72;;;;;;;6.94;97.24;101242.25;7399235;19;20349;-79
2023/12/19 06:31:02;;;;;;;8.77;7.97;;;;;;;7.00;97.08;101238.22;7397673;19;20681;-79
2023/12/19 06:33:29;;;;;;;8.85;7.95;;;;;;;6.98;97.12;101240.16;7396937;19;20863;-79
2023/12/19 06:35:56;;;;;;;8.70;7.90;;;;;;;6.97;97.27;101229.75;7398843;19;20695;-79
2023/12/19 06:38:23;;;;;;;8.50;7.70;;;;;;;7.03;97.14;101229.19;7398109;19;20775;-79
2023/12/19 06:40:49;;;;;;;7.93;7.13;;;;;;;7.05;96.92;101217.53;7400081;19;20360;-79
2023/12/19 06:43:17;;;;;;;8.07;7.35;;;;;;;7.06;97.51;101218.38;7400185;19;20343;-78
2023/12/19 06:45:43;;;;;;;8.40;7.60;;;;;;;7.04;97.44;101213.25;7395115;19;20373;-79
2023/12/19 06:48:10;;;;;;;8.52;7.72;;;;;;;7.04;97.64;101228.25;7395958;19;20369;-79
2023/12/19 06:50:39;;;;;;;8.63;7.77;;;;;;;7.04;97.60;101215.06;7396547;19;20402;-79
2023/12/19 06:53:05;;;;;;;9.20;8.30;;;;;;;7.04;97.49;101222.97;7396916;19;20362;-79
2023/12/19 06:55:32;;;;;;;8.63;7.80;;;;;;;7.08;97.68;101232.28;7395451;19;20348;-79
2023/12/19 06:58:00;;;;;;;9.95;8.52;;;;;;;7.09;97.66;101242.66;7398294;19;20376;-79
2023/12/19 07:00:28;;;;;;;9.15;8.35;;;;;;;7.00;98.45;101246.16;7393217;19;20385;-79
2023/12/19 07:02:55;;;;;;;9.88;8.98;;;;;;;7.03;98.72;101234.47;7393793;19;20348;-79
2023/12/19 07:05:22;;;;;;;10.70;9.68;;;;;;;7.02;98.90;101227.56;7398809;19;20368;-79
2023/12/19 07:07:51;;;;;;;9.75;8.85;;;;;;;7.03;99.22;101223.94;7393895;19;20356;-79
2023/12/19 07:10:18;;;;;;;10.25;9.30;;;;;;;7.02;99.33;101228.38;7392685;19;20713;-80
2023/12/19 07:12:45;;;;;;;10.38;9.48;;;;;;;7.01;100.00;101241.69;7397988;19;20373;-80
2023/12/19 07:15:14;;;;;;;11.05;9.88;;;;;;;6.99;100.00;101233.94;7397257;19;20450;-80
2023/12/19 07:17:43;;;;;;;11.83;10.67;;;;;;;7.00;100.00;101224.22;7398870;19;20364;-79
2023/12/19 07:20:10;;;;;;;11.02;9.90;;;;;;;6.96;100.00;101236.00;7398147;19;20371;-79
2023/12/19 07:22:37;;;;;;;11.70;10.50;;;;;;;6.97;100.00;101232.38;7391062;19;20385;-78
2023/12/19 07:25:04;;;;;;;10.40;9.43;;;;;;;6.88;100.00;101228.78;7393689;19;20445;-77
2023/12/19 07:27:31;;;;;;;12.00;10.80;;;;;;;6.89;100.00;101222.56;7390575;19;20385;-77
2023/12/19 07:30:05;;;;;;;11.63;10.52;;;;;;;6.83;100.00;101216.00;7393210;19;20852;-77
2023/12/19 07:32:32;;;;;;;11.40;10.33;;;;;;;6.79;100.00;101219.06;7391884;19;20344;-77
2023/12/19 07:34:59;;;;;;;12.27;11.07;;;;;;;6.81;100.00;101217.13;7392262;19;20336;-77
2023/12/19 07:37:26;;;;;;;12.27;11.05;;;;;;;6.77;100.00;101221.81;7389098;19;20424;-76
2023/12/19 07:39:53;;;;;;;11.60;10.40;;;;;;;6.74;100.00;101222.13;7393892;19;20868;-77
2023/12/19 07:42:20;;;;;;;12.05;10.65;;;;;;;6.76;100.00;101208.78;7394721;19;20444;-77
2023/12/19 07:44:46;;;;;;;11.57;10.47;;;;;;;6.72;100.00;101202.97;7390900;19;20353;-78
2023/12/19 07:47:13;;;;;;;10.68;9.60;;;;;;;6.77;100.00;101210.47;7390292;19;20840;-78
2023/12/19 07:49:40;;;;;;;10.43;9.43;;;;;;;6.73;100.00;101208.06;7395009;19;20391;-78
2023/12/19 07:52:07;;;;;;;10.52;9.45;;;;;;;6.73;100.00;101207.25;7390952;19;20444;-78
2023/12/19 07:54:34;;;;;;;11.18;10.07;;;;;;;6.77;100.00;101198.09;7391329;19;20360;-78
2023/12/19 07:57:01;;;;;;;10.50;9.50;;;;;;;6.72;100.00;101195.88;7390233;19;20472;-77
2023/12/19 07:59:27;;;;;;;10.25;9.25;;;;;;;6.74;100.00;101193.13;7387484;19;20355;-77
2023/12/19 08:01:54;;;;;;;10.70;9.70;;;;;;;6.74;100.00;101183.38;7387153;19;20365;-77
2023/12/19 08:04:21;;;;;;;11.52;10.38;;;;;;;6.72;100.00;101173.97;7392112;19;20450;-76
2023/12/19 08:06:48;;;;;;;10.85;9.73;;;;;;;6.69;100.00;101187.41;7391803;19;20871;-78
2023/12/19 08:09:15;;;;;;;11.88;10.68;;;;;;;6.74;100.00;101166.75;7388676;19;20727;-79
2023/12/19 08:11:42;;;;;;;11.20;10.10;;;;;;;6.72;100.00;101173.97;7389025;19;20341;-78
2023/12/19 08:14:09;;;;;;;10.75;9.68;;;;;;;6.72;100.00;101160.78;7395027;19;20708;-79
2023/12/19 08:16:36;;;;;;;11.13;10.00;;;;;;;6.74;100.00;101156.19;7389210;19;20887;-78
2023/12/19 08:19:03;;;;;;;11.52;10.32;;;;;;;6.73;100.00;101146.59;7389746;19;20886;-78
2023/12/19 08:21:32;;;;;;;11.10;10.00;;;;;;;6.73;100.00;101149.25;7386963;19;20360;-78
2023/12/19 08:23:59;;;;;;;10.95;9.85;;;;;;;6.70;100.00;101139.00;7388064;19;20906;-78
2023/12/19 08:26:26;;;;;;;10.37;9.27;;;;;;;6.75;100.00;101131.47;7389241;19;20418;-78
2023/12/19 08:28:52;;;;;;;10.60;9.50;;;;;;;6.73;100.00;101130.78;7390752;19;20372;-78
2023/12/19 08:31:19;;;;;;;9.70;8.65;;;;;;;6.70;100.00;101133.72;7390930;19;20365;-78
2023/12/19 08:33:46;;;;;;;10.50;9.40;;;;;;;6.70;100.00;101139.00;7388356;19;20381;-78
2023/12/19 08:36:13;;;;;;;9.82;8.25;;;;;;;6.68;100.00;101130.38;7389409;19;20337;-78
2023/12/19 08:38:59;;;;;;;10.55;9.23;;;;;;;6.70;100.00;101128.44;7390209;19;20345;-78
2023/12/19 08:41:26;;;;;;;10.52;9.43;;;;;;;6.77;100.00;101132.19;7389601;19;20399;-78
2023/12/19 08:43:56;;;;;;;9.50;8.23;;;;;;;6.68;100.00;101130.38;7389168;19;20425;-78
2023/12/19 08:46:24;;;;;;;10.10;9.10;;;;;;;6.73;100.00;101126.34;7392482;19;20436;-78
2023/12/19 08:48:51;;;;;;;10.10;9.10;;;;;;;6.74;100.00;101114.84;7388631;19;20361;-78
2023/12/19 08:51:17;;;;;;;9.77;8.77;;;;;;;6.74;100.00;101124.56;7385794;19;20359;-78
2023/12/19 08:53:44;;;;;;;11.52;9.70;;;;;;;6.80;100.00;101115.25;7393626;19;20356;-78
2023/12/19 08:56:11;;;;;;;10.48;9.18;;;;;;;6.81;100.00;101115.09;7389013;19;20356;-78
2023/12/19 08:58:38;;;;;;;9.98;8.95;;;;;;;6.82;100.00;101106.25;7389811;19;20362;-78
2023/12/19 09:01:05;;;;;;;10.50;8.55;;;;;;;6.84;100.00;101099.03;7392259;19;20397;-78
2023/12/19 09:03:31;;;;;;;9.60;8.70;;;;;;;6.79;100.00;101106.50;7387921;19;20516;-78
2023/12/19 09:05:58;;;;;;;9.38;8.48;;;;;;;6.77;100.00;101108.44;7391847;19;20336;-78
2023/12/19 09:08:25;;;;;;;9.60;8.68;;;;;;;6.80;100.00;101095.00;7391948;19;20670;-78
2023/12/19 09:10:52;;;;;;;9.03;8.13;;;;;;;6.83;100.00;101096.53;7383393;19;20357;-78
2023/12/19 09:13:21;;;;;;;8.55;7.65;;;;;;;6.85;100.00;101108.59;7388361;19;20364;-78
2023/12/19 09:15:48;;;;;;;8.95;7.70;;;;;;;6.85;100.00;101105.94;7389831;19;20715;-78
2023/12/19 09:18:17;;;;;;;7.70;6.90;;;;;;;6.89;100.00;101104.69;7392315;19;20453;-78
2023/12/19 09:20:44;;;;;;;8.10;7.23;;;;;;;6.91;100.00;101102.75;7390237;19;20435;-78
2023/12/19 09:23:11;;;;;;;7.63;6.82;;;;;;;6.98;100.00;101089.00;7388662;19;20360;-78
2023/12/19 09:25:38;;;;;;;6.88;6.18;;;;;;;7.01;100.00;101089.53;7389829;19;20348;-78
2023/12/19 09:28:05;;;;;;;7.05;6.35;;;;;;;7.03;100.00;101076.22;7392334;19;20383;-79
2023/12/19 09:30:31;;;;;;;6.93;5.75;;;;;;;7.07;100.00;101080.22;7391555;19;20381;-78
2023/12/19 09:32:58;;;;;;;6.97;5.97;;;;;;;7.05;100.00;101068.97;7390255;19;20398;-78
2023/12/19 09:35:25;;;;;;;6.85;6.13;;;;;;;7.10;100.00;101077.31;7389641;19;20373;-78
2023/12/19 09:37:52;;;;;;;6.22;5.57;;;;;;;7.12;100.00;101064.81;7395692;19;20385;-78
2023/12/19 09:40:27;;;;;;;5.75;5.15;;;;;;;7.11;100.00;101065.78;7397118;19;20372;-78
2023/12/19 09:42:53;;;;;;;6.28;5.43;;;;;;;7.16;100.00;101058.25;7397623;19;20347;-78
2023/12/19 09:45:20;;;;;;;6.22;5.30;;;;;;;7.15;100.00;101051.31;7389526;19;20345;-78
2023/12/19 09:48:09;;;;;;;6.18;5.43;;;;;;;7.19;100.00;101052.69;7394424;19;20372;-78
2023/12/19 09:50:42;;;;;;;5.70;4.72;;;;;;;7.20;100.00;101046.44;7392038;19;20361;-78
2023/12/19 09:53:10;;;;;;;5.60;4.93;;;;;;;7.22;100.00;101059.50;7392256;19;20850;-78
2023/12/19 09:55:43;;;;;;;5.95;4.53;;;;;;;7.26;100.00;101060.88;7395875;19;20694;-77
2023/12/19 09:58:12;;;;;;;5.38;4.45;;;;;;;7.27;100.00;101046.72;7396429;19;20352;-77
2023/12/19 10:00:44;;;;;;;5.43;4.15;;;;;;;7.26;100.00;101048.50;7396513;19;20356;-77
2023/12/19 10:03:12;;;;;;;5.22;4.32;;;;;;;7.27;100.00;101042.25;7394161;19;20385;-78
2023/12/19 10:05:43;;;;;;;5.35;4.32;;;;;;;7.25;100.00;101043.38;7397925;19;20377;-77
2023/12/19 10:08:10;;;;;;;5.55;4.57;;;;;;;7.27;100.00;101044.91;7391813;19;20365;-77
2023/12/19 10:10:56;;;;;;;7.97;4.75;;;;;;;7.30;100.00;101020.03;7388889;19;20373;-77
2023/12/19 10:13:30;;;;;;;5.03;4.47;;;;;;;7.30;100.00;101015.56;7389041;19;20442;-78
2023/12/19 10:16:08;;;;;;;5.43;4.20;;;;;;;7.26;100.00;101006.28;7391585;19;20365;-78
2023/12/19 10:18:56;;;;;;;5.50;4.50;;;;;;;7.30;100.00;100997.09;7393121;19;20348;-77
2023/12/19 10:21:28;;;;;;;5.32;4.50;;;;;;;7.30;100.00;101009.47;7386964;19;20367;-77
2023/12/19 10:24:11;;;;;;;6.28;4.03;;;;;;;7.37;100.00;100994.69;7388992;19;20368;-77
2023/12/19 10:26:39;;;;;;;4.47;3.78;;;;;;;7.34;100.00;100995.81;7390849;19;20352;-77
2023/12/19 10:29:06;;;;;;;5.18;3.92;;;;;;;7.37;100.00;100988.59;7390207;19;20364;-77
2023/12/19 10:31:34;;;;;;;4.75;3.40;;;;;;;7.35;100.00;100988.75;7392715;19;20383;-78
2023/12/19 10:34:04;;;;;;;5.47;3.75;;;;;;;7.39;100.00;100957.63;7393950;19;20349;-78
2023/12/19 10:36:33;;;;;;;4.60;3.40;;;;;;;7.37;100.00;100960.38;7392261;19;20367;-77
2023/12/19 10:39:03;;;;;;;4.45;3.15;;;;;;;7.33;100.00;100966.94;7390525;19;20419;-77
2023/12/19 10:41:31;;;;;;;4.97;3.20;;;;;;;7.36;100.00;100961.38;7393951;19;20352;-77
2023/12/19 10:43:59;;;;;;;4.38;3.10;;;;;;;7.41;100.00;100938.00;7388716;19;20688;-77
2023/12/19 10:46:29;;;;;;;3.95;2.97;;;;;;;7.42;100.00;100950.25;7387763;19;20349;-77
2023/12/19 10:49:04;;;;;;;4.90;3.15;;;;;;;7.44;100.00;100947.44;7384246;19;20377;-77
2023/12/19 10:51:33;;;;;;;4.55;3.28;;;;;;;7.42;100.00;100936.22;7387829;19;20447;-77
2023/12/19 10:54:04;;;;;;;4.55;3.00;;;;;;;7.43;100.00;100937.88;7387825;19;20401;-77
2023/12/19 10:56:34;;;;;;;4.10;2.83;;;;;;;7.46;100.00;100927.00;7379453;19;20352;-77
2023/12/19 10:59:04;;;;;;;4.35;3.28;;;;;;;7.48;100.00;100927.69;7389849;19;20375;-77
2023/12/19 11:01:38;;;;;;;4.90;2.95;;;;;;;7.40;100.00;100915.25;7389583;19;20360;-77
2023/12/19 11:04:21;;;;;;;3.30;2.63;;;;;;;7.40;100.00;100920.53;7394688;19;20904;-77
2023/12/19 11:06:55;;;;;;;3.28;2.42;;;;;;;7.44;100.00;100926.31;7390866;19;20356;-77
2023/12/19 11:09:31;;;;;;;2.78;2.47;;;;;;;7.43;100.00;100914.09;7392469;19;20438;-76
2023/12/19 11:11:58;;;;;;;3.22;2.50;;;;;;;7.42;100.00;100904.53;7389324;19;20356;-76
2023/12/19 11:14:26;;;;;;;3.10;2.60;;;;;;;7.47;100.00;100897.00;7390936;19;20349;-77
2023/12/19 11:17:14;;;;;;;2.95;2.55;;;;;;;7.45;100.00;100897.13;7393464;19;20876;-76
2023/12/19 11:19:48;;;;;;;4.38;3.03;;;;;;;7.44;100.00;100905.19;7393533;19;20497;-77
2023/12/19 11:22:32;;;;;;;3.30;3.00;;;;;;;7.43;100.00;100903.56;7391633;19;20440;-77
2023/12/19 11:25:15;;;;;;;3.90;3.00;;;;;;;7.40;100.00;100899.41;7391974;19;20370;-77
2023/12/19 11:27:55;;;;;;;3.90;3.15;;;;;;;7.40;100.00;100893.31;7389880;19;20356;-77